createdAt,value
2023-11-11T00:03:19.697Z,79.68
2023-11-11T00:08:24.172Z,79.62
2023-11-11T00:13:27.279Z,79.08
2023-11-11T00:18:30.292Z,79.40
2023-11-11T00:23:33.363Z,79.43
2023-11-11T00:28:41.688Z,79.49
2023-11-11T00:33:45.665Z,79.34
2023-11-11T00:38:49.219Z,78.83
2023-11-11T00:43:52.236Z,79.39
2023-11-11T00:48:55.247Z,79.43
2023-11-11T00:53:59.541Z,79.43
2023-11-11T00:59:02.602Z,79.78
2023-11-11T01:04:06.933Z,80.00
2023-11-11T01:09:14.651Z,80.35
2023-11-11T01:14:18.432Z,79.82
2023-11-11T01:19:21.520Z,80.12
2023-11-11T01:24:24.638Z,80.30
2023-11-11T01:29:27.756Z,80.44
2023-11-11T01:34:30.842Z,80.28
2023-11-11T01:39:33.890Z,79.91
2023-11-11T01:44:37.157Z,79.54
2023-11-11T01:49:40.969Z,79.42
2023-11-11T01:54:44.477Z,79.57
2023-11-11T01:59:48.332Z,79.46
2023-11-11T02:04:51.358Z,79.84
2023-11-11T02:09:54.538Z,80.18
2023-11-11T02:14:57.765Z,80.77
2023-11-11T02:20:02.078Z,81.20
2023-11-11T02:25:07.876Z,81.48
2023-11-11T02:30:13.437Z,81.43
2023-11-11T02:35:16.985Z,81.83
2023-11-11T02:40:19.976Z,82.25
2023-11-11T02:45:24.993Z,81.98
2023-11-11T02:50:29.360Z,82.23
2023-11-11T02:55:32.389Z,82.50
2023-11-11T03:00:37.762Z,82.82
2023-11-11T03:05:40.834Z,83.22
2023-11-11T03:10:43.937Z,83.37
2023-11-11T03:15:47.135Z,82.86
2023-11-11T03:20:50.277Z,83.01
2023-11-11T03:25:53.291Z,82.85
2023-11-11T03:30:56.329Z,82.98
2023-11-11T03:35:59.333Z,82.89
2023-11-11T03:41:02.355Z,83.23
2023-11-11T03:46:06.185Z,83.08
2023-11-11T03:51:09.741Z,83.26
2023-11-11T03:56:12.856Z,83.23
2023-11-11T04:01:15.887Z,83.34
2023-11-11T04:06:18.882Z,83.21
2023-11-11T04:11:23.495Z,83.23
2023-11-11T04:16:31.455Z,83.11
2023-11-11T04:21:34.821Z,83.41
2023-11-11T04:26:37.845Z,83.79
2023-11-11T04:31:40.854Z,83.93
2023-11-11T04:36:43.835Z,84.36
2023-11-11T04:41:48.840Z,84.77
2023-11-11T04:46:51.894Z,84.53
2023-11-11T04:51:54.941Z,84.55
2023-11-11T04:56:57.947Z,84.65
2023-11-11T05:02:00.973Z,84.52
2023-11-11T05:07:05.206Z,84.31
2023-11-11T05:12:10.175Z,84.15
2023-11-11T05:17:14.755Z,84.24
2023-11-11T05:22:17.990Z,84.14
2023-11-11T05:27:21.048Z,83.93
2023-11-11T05:32:24.448Z,83.84
2023-11-11T05:37:27.514Z,83.77
2023-11-11T05:42:30.501Z,83.93
2023-11-11T05:47:33.585Z,84.04
2023-11-11T05:52:36.659Z,84.59
2023-11-11T05:57:40.700Z,84.39
2023-11-11T06:02:44.842Z,84.63
2023-11-11T06:07:47.824Z,84.78
2023-11-11T06:12:50.964Z,84.82
2023-11-11T06:17:54.057Z,85.13
2023-11-11T06:28:03.630Z,84.66
2023-11-11T06:33:06.750Z,84.87
2023-11-11T06:38:12.279Z,84.84
2023-11-11T06:43:15.387Z,85.07
2023-11-11T06:48:18.651Z,85.26
2023-11-11T06:53:21.762Z,85.29
2023-11-11T06:58:24.753Z,85.76
2023-11-11T07:03:30.559Z,85.54
2023-11-11T07:08:34.962Z,86.10
2023-11-11T07:13:38.014Z,85.62
2023-11-11T07:18:42.610Z,85.17
2023-11-11T07:23:45.858Z,84.65
2023-11-11T07:28:50.539Z,84.15
2023-11-11T07:33:53.829Z,84.16
2023-11-11T07:38:58.405Z,83.96
2023-11-11T07:44:05.964Z,84.49
2023-11-11T07:49:14.431Z,84.72
2023-11-11T07:54:18.138Z,84.54
2023-11-11T07:59:21.130Z,84.14
2023-11-11T08:04:25.527Z,84.03
2023-11-11T08:09:28.778Z,83.53
2023-11-11T08:14:32.806Z,83.40
2023-11-11T08:19:35.844Z,83.79
2023-11-11T08:24:38.867Z,84.11
2023-11-11T08:29:41.854Z,84.01
2023-11-11T08:34:44.874Z,83.98
2023-11-11T08:39:49.063Z,83.09
2023-11-11T08:44:52.760Z,83.08
2023-11-11T08:49:56.510Z,83.30
2023-11-11T08:54:59.368Z,83.28
2023-11-11T09:00:02.720Z,83.71
2023-11-11T09:05:07.361Z,83.69
2023-11-11T09:10:10.869Z,83.41
2023-11-11T09:15:14.273Z,83.27
2023-11-11T09:20:17.880Z,82.73
2023-11-11T09:25:25.792Z,83.10
2023-11-11T09:30:32.590Z,83.21
2023-11-11T09:35:37.497Z,82.91
2023-11-11T09:40:42.362Z,82.91
2023-11-11T09:45:46.267Z,83.14
2023-11-11T09:50:50.380Z,83.55
2023-11-11T09:55:56.005Z,83.88
2023-11-11T10:00:59.522Z,84.19
2023-11-11T10:06:03.041Z,84.39
2023-11-11T10:11:10.546Z,84.12
2023-11-11T10:16:15.229Z,84.20
2023-11-11T10:21:24.002Z,84.12
2023-11-11T10:26:27.196Z,84.57
2023-11-11T10:31:38.023Z,85.09
2023-11-11T10:36:43.165Z,85.21
2023-11-11T10:41:48.014Z,85.42
2023-11-11T10:46:51.490Z,85.41
2023-11-11T10:52:00.243Z,85.77
2023-11-11T10:57:04.747Z,85.51
2023-11-11T11:02:13.134Z,85.80
2023-11-11T11:07:26.200Z,85.82
2023-11-11T11:12:58.087Z,85.65
2023-11-11T11:18:02.779Z,85.95
2023-11-11T11:23:08.796Z,85.52
2023-11-11T11:28:22.825Z,85.23
2023-11-11T11:33:29.071Z,84.52
2023-11-11T11:38:42.100Z,84.64
2023-11-11T11:43:52.792Z,84.65
2023-11-11T11:48:56.425Z,85.08
2023-11-11T11:54:00.445Z,85.03
2023-11-11T11:59:05.167Z,84.86
2023-11-11T12:04:08.841Z,84.91
2023-11-11T12:09:18.407Z,84.69
2023-11-11T12:14:22.980Z,84.83
2023-11-11T12:19:26.436Z,84.87
2023-11-11T12:24:30.944Z,84.91
2023-11-11T12:29:43.769Z,85.21
2023-11-11T12:34:52.982Z,85.31
2023-11-11T12:39:56.029Z,85.19
2023-11-11T12:44:59.151Z,84.89
2023-11-11T12:50:05.659Z,84.92
2023-11-11T12:55:22.741Z,84.86
2023-11-11T13:00:25.813Z,84.81
2023-11-11T13:05:30.077Z,84.28
2023-11-11T13:10:33.160Z,84.40
2023-11-11T13:15:36.229Z,83.79
2023-11-11T13:20:40.128Z,83.63
2023-11-11T13:25:43.422Z,83.29
2023-11-11T13:30:48.506Z,83.25
2023-11-11T13:35:56.638Z,83.08
2023-11-11T13:41:02.108Z,82.39
2023-11-11T13:46:06.368Z,82.16
2023-11-11T13:51:11.962Z,82.81
2023-11-11T13:56:15.370Z,83.16
2023-11-11T14:01:18.468Z,83.05
2023-11-11T14:06:23.028Z,82.66
2023-11-11T14:11:28.966Z,82.24
2023-11-11T14:16:32.420Z,81.73
2023-11-11T14:21:35.629Z,81.75
2023-11-11T14:26:47.957Z,82.10
2023-11-11T14:31:51.035Z,81.73
2023-11-11T14:36:55.174Z,81.95
2023-11-11T14:42:05.867Z,82.08
2023-11-11T14:47:11.601Z,82.37
2023-11-11T14:52:16.285Z,82.39
2023-11-11T14:57:19.940Z,82.53
2023-11-11T15:02:23.163Z,82.47
2023-11-11T15:07:26.644Z,82.58
2023-11-11T15:12:29.638Z,82.51
2023-11-11T15:17:33.769Z,82.47
2023-11-11T15:22:37.022Z,82.21
2023-11-11T15:27:41.468Z,82.49
2023-11-11T15:32:45.097Z,82.46
2023-11-11T15:37:48.681Z,82.41
2023-11-11T15:42:51.718Z,82.04
2023-11-11T15:47:56.097Z,82.27
2023-11-11T15:52:59.235Z,82.28
2023-11-11T15:58:02.332Z,82.12
2023-11-11T16:03:05.517Z,82.34
2023-11-11T16:08:10.238Z,82.18
2023-11-11T16:13:13.510Z,82.35
2023-11-11T16:18:16.735Z,82.27
2023-11-11T16:23:19.899Z,82.04
2023-11-11T16:28:22.892Z,82.34
2023-11-11T16:33:26.249Z,82.21
2023-11-11T16:38:29.707Z,82.62
2023-11-11T16:43:32.759Z,82.78
2023-11-11T16:48:35.947Z,82.92
2023-11-11T16:53:39.076Z,83.23
2023-11-11T16:58:42.340Z,83.43
2023-11-11T17:03:46.012Z,83.66
2023-11-11T17:08:48.965Z,83.77
2023-11-11T17:13:53.046Z,84.20
2023-11-11T17:18:56.914Z,84.35
2023-11-11T17:24:00.598Z,84.47
2023-11-11T17:29:03.525Z,85.00
2023-11-11T17:34:09.699Z,84.90
2023-11-11T17:39:12.808Z,85.13
2023-11-11T17:44:18.818Z,85.20
2023-11-11T17:49:21.876Z,85.15
2023-11-11T17:54:29.544Z,85.14
2023-11-11T17:59:32.865Z,84.93
2023-11-11T18:04:36.718Z,84.69
2023-11-11T18:09:41.572Z,84.80
2023-11-11T18:14:45.909Z,84.80
2023-11-11T18:26:11.499Z,84.75
2023-11-11T18:31:14.720Z,84.67
2023-11-11T18:36:17.779Z,84.63
2023-11-11T18:41:25.434Z,84.43
2023-11-11T18:46:28.506Z,84.32
2023-11-11T18:51:31.568Z,84.14
2023-11-11T18:56:35.245Z,84.09
2023-11-11T19:01:38.315Z,84.00
2023-11-11T19:06:44.348Z,84.13
2023-11-11T19:11:47.614Z,84.28
2023-11-11T19:16:50.746Z,84.50
2023-11-11T19:21:54.816Z,84.22
2023-11-11T19:26:58.228Z,84.22
2023-11-11T19:32:04.799Z,84.23
2023-11-11T19:37:09.724Z,84.15
2023-11-11T19:42:12.821Z,84.11
2023-11-11T19:47:15.906Z,84.16
2023-11-11T19:52:18.993Z,84.20
2023-11-11T19:57:24.698Z,84.34
2023-11-11T20:02:30.948Z,84.30
2023-11-11T20:07:40.825Z,84.32
2023-11-11T20:12:46.521Z,84.31
2023-11-11T20:17:50.609Z,84.19
2023-11-11T20:22:53.646Z,83.92
2023-11-11T20:27:57.116Z,84.28
2023-11-11T20:33:03.313Z,84.42
2023-11-11T20:38:07.068Z,84.72
2023-11-11T20:43:10.036Z,84.57
2023-11-11T20:48:14.595Z,84.58
2023-11-11T20:53:19.164Z,84.57
2023-11-11T20:58:22.477Z,84.44
2023-11-11T21:03:25.633Z,84.10
2023-11-11T21:08:29.269Z,84.20
2023-11-11T21:13:34.252Z,84.41
2023-11-11T21:18:37.255Z,84.40
2023-11-11T21:23:41.423Z,84.55
2023-11-11T21:28:44.541Z,84.50
2023-11-11T21:33:47.549Z,84.35
2023-11-11T21:38:50.568Z,84.35
2023-11-11T21:43:54.092Z,83.94
2023-11-11T21:48:57.174Z,83.89
2023-11-11T21:54:00.193Z,83.90
2023-11-11T21:59:03.410Z,83.80
2023-11-11T22:04:07.211Z,83.82
2023-11-11T22:09:10.403Z,84.01
2023-11-11T22:14:15.964Z,84.03
2023-11-11T22:19:19.619Z,83.70
2023-11-11T22:24:22.681Z,83.71
2023-11-11T22:29:25.786Z,83.64
2023-11-11T22:34:28.780Z,83.96
2023-11-11T22:39:31.907Z,83.97
2023-11-11T22:44:35.019Z,84.26
2023-11-11T22:49:40.562Z,84.47
2023-11-11T22:54:43.742Z,84.68
2023-11-11T22:59:46.757Z,84.61
2023-11-11T23:04:50.083Z,84.33
2023-11-11T23:09:58.029Z,84.53
2023-11-11T23:15:02.779Z,85.01
2023-11-11T23:20:09.799Z,85.08
2023-11-11T23:25:12.961Z,85.54
2023-11-11T23:30:16.068Z,85.63
2023-11-11T23:35:19.410Z,85.35
2023-11-11T23:40:22.826Z,85.70
2023-11-11T23:45:26.899Z,85.99
2023-11-11T23:50:29.941Z,85.58
2023-11-11T23:55:33.560Z,85.54
